sensor_id;sensor_type;location;lat;lon;timestamp;temperature;humidity
1025;DHT22;501;48.214;11.350;2023-02-01T00:01:51;4.20;44.50
1025;DHT22;501;48.214;11.350;2023-02-01T00:04:16;4.20;44.80
1025;DHT22;501;48.214;11.350;2023-02-01T00:06:42;4.20;44.60
1025;DHT22;501;48.214;11.350;2023-02-01T00:09:08;4.20;45.10
1025;DHT22;501;48.214;11.350;2023-02-01T00:11:33;4.20;45.00
1025;DHT22;501;48.214;11.350;2023-02-01T00:13:59;4.20;45.10
1025;DHT22;501;48.214;11.350;2023-02-01T00:16:27;4.20;45.10
1025;DHT22;501;48.214;11.350;2023-02-01T00:19:01;4.20;45.10
1025;DHT22;501;48.214;11.350;2023-02-01T00:21:29;4.20;45.00
1025;DHT22;501;48.214;11.350;2023-02-01T00:23:55;4.20;46.30
1025;DHT22;501;48.214;11.350;2023-02-01T00:26:44;4.20;46.30
1025;DHT22;501;48.214;11.350;2023-02-01T00:29:18;4.20;47.00
1025;DHT22;501;48.214;11.350;2023-02-01T00:31:45;4.20;47.90
1025;DHT22;501;48.214;11.350;2023-02-01T00:34:15;4.10;49.10
1025;DHT22;501;48.214;11.350;2023-02-01T00:36:41;4.10;50.20
1025;DHT22;501;48.214;11.350;2023-02-01T00:39:08;4.00;52.20
1025;DHT22;501;48.214;11.350;2023-02-01T00:41:33;4.00;53.40
1025;DHT22;501;48.214;11.350;2023-02-01T00:43:59;3.90;55.00
1025;DHT22;501;48.214;11.350;2023-02-01T00:46:25;3.90;56.10
1025;DHT22;501;48.214;11.350;2023-02-01T00:48:51;3.80;56.60
1025;DHT22;501;48.214;11.350;2023-02-01T00:51:22;3.80;56.80
1025;DHT22;501;48.214;11.350;2023-02-01T00:53:49;3.80;57.30
1025;DHT22;501;48.214;11.350;2023-02-01T00:56:14;3.70;57.40
1025;DHT22;501;48.214;11.350;2023-02-01T00:58:40;3.70;57.50
1025;DHT22;501;48.214;11.350;2023-02-01T01:01:07;3.70;57.40
1025;DHT22;501;48.214;11.350;2023-02-01T01:03:35;3.60;56.70
1025;DHT22;501;48.214;11.350;2023-02-01T01:06:05;3.60;56.70
1025;DHT22;501;48.214;11.350;2023-02-01T01:08:31;3.60;56.40
1025;DHT22;501;48.214;11.350;2023-02-01T01:10:57;3.60;56.70
1025;DHT22;501;48.214;11.350;2023-02-01T01:13:23;3.60;56.30
1025;DHT22;501;48.214;11.350;2023-02-01T01:15:48;3.60;56.20
1025;DHT22;501;48.214;11.350;2023-02-01T01:18:14;3.60;56.10
1025;DHT22;501;48.214;11.350;2023-02-01T01:20:41;3.60;55.80
1025;DHT22;501;48.214;11.350;2023-02-01T01:23:07;3.60;55.80
1025;DHT22;501;48.214;11.350;2023-02-01T01:25:37;3.60;55.50
1025;DHT22;501;48.214;11.350;2023-02-01T01:28:04;3.60;56.30
1025;DHT22;501;48.214;11.350;2023-02-01T01:30:29;3.60;56.70
1025;DHT22;501;48.214;11.350;2023-02-01T01:32:55;3.60;57.20
1025;DHT22;501;48.214;11.350;2023-02-01T01:35:21;3.60;57.50
1025;DHT22;501;48.214;11.350;2023-02-01T01:37:46;3.60;57.70
1025;DHT22;501;48.214;11.350;2023-02-01T01:40:12;3.50;58.00
1025;DHT22;501;48.214;11.350;2023-02-01T01:42:40;3.50;58.20
1025;DHT22;501;48.214;11.350;2023-02-01T01:47:43;3.50;58.90
1025;DHT22;501;48.214;11.350;2023-02-01T01:50:15;3.50;59.40
1025;DHT22;501;48.214;11.350;2023-02-01T01:52:43;3.50;59.40
1025;DHT22;501;48.214;11.350;2023-02-01T01:55:10;3.50;59.80
1025;DHT22;501;48.214;11.350;2023-02-01T01:57:40;3.50;60.00
1025;DHT22;501;48.214;11.350;2023-02-01T02:00:13;3.50;59.80
1025;DHT22;501;48.214;11.350;2023-02-01T02:02:40;3.50;59.60
1025;DHT22;501;48.214;11.350;2023-02-01T02:05:08;3.40;59.40
1025;DHT22;501;48.214;11.350;2023-02-01T02:07:37;3.40;60.10
1025;DHT22;501;48.214;11.350;2023-02-01T02:10:08;3.40;60.00
1025;DHT22;501;48.214;11.350;2023-02-01T02:12:39;3.40;60.20
1025;DHT22;501;48.214;11.350;2023-02-01T02:15:09;3.40;60.40
1025;DHT22;501;48.214;11.350;2023-02-01T02:23:16;3.40;61.20
1025;DHT22;501;48.214;11.350;2023-02-01T02:32:12;3.40;61.30
1025;DHT22;501;48.214;11.350;2023-02-01T02:34:53;3.40;61.30
1025;DHT22;501;48.214;11.350;2023-02-01T02:37:38;3.40;61.20
1025;DHT22;501;48.214;11.350;2023-02-01T02:43:12;3.40;61.20
1025;DHT22;501;48.214;11.350;2023-02-01T02:46:10;3.40;60.70
1025;DHT22;501;48.214;11.350;2023-02-01T02:51:43;3.50;60.30
1025;DHT22;501;48.214;11.350;2023-02-01T02:54:32;3.50;60.00
1025;DHT22;501;48.214;11.350;2023-02-01T02:57:33;3.50;59.30
1025;DHT22;501;48.214;11.350;2023-02-01T03:00:21;3.50;58.40
1025;DHT22;501;48.214;11.350;2023-02-01T03:03:07;3.50;58.50
1025;DHT22;501;48.214;11.350;2023-02-01T03:05:51;3.60;58.00
1025;DHT22;501;48.214;11.350;2023-02-01T03:08:22;3.60;58.10
1025;DHT22;501;48.214;11.350;2023-02-01T03:11:07;3.60;57.20
1025;DHT22;501;48.214;11.350;2023-02-01T03:13:53;3.60;56.80
1025;DHT22;501;48.214;11.350;2023-02-01T03:16:28;3.70;56.40
1025;DHT22;501;48.214;11.350;2023-02-01T03:21:36;3.70;56.70
1025;DHT22;501;48.214;11.350;2023-02-01T03:24:24;3.70;56.30
1025;DHT22;501;48.214;11.350;2023-02-01T03:27:07;3.70;55.80
1025;DHT22;501;48.214;11.350;2023-02-01T03:30:01;3.70;55.80
1025;DHT22;501;48.214;11.350;2023-02-01T03:32:27;3.70;55.30
1025;DHT22;501;48.214;11.350;2023-02-01T03:34:54;3.70;55.10
1025;DHT22;501;48.214;11.350;2023-02-01T03:37:27;3.70;55.40
1025;DHT22;501;48.214;11.350;2023-02-01T03:40:07;3.70;55.20
1025;DHT22;501;48.214;11.350;2023-02-01T03:42:48;3.70;55.30
1025;DHT22;501;48.214;11.350;2023-02-01T03:45:27;3.70;55.00
1025;DHT22;501;48.214;11.350;2023-02-01T03:47:56;3.70;54.90
1025;DHT22;501;48.214;11.350;2023-02-01T03:50:26;3.70;54.40
1025;DHT22;501;48.214;11.350;2023-02-01T03:53:08;3.70;54.50
1025;DHT22;501;48.214;11.350;2023-02-01T03:55:36;3.70;54.80
1025;DHT22;501;48.214;11.350;2023-02-01T03:58:16;3.70;54.80
1025;DHT22;501;48.214;11.350;2023-02-01T04:00:57;3.70;53.80
1025;DHT22;501;48.214;11.350;2023-02-01T04:03:23;3.70;53.80
1025;DHT22;501;48.214;11.350;2023-02-01T04:05:50;3.70;53.70
1025;DHT22;501;48.214;11.350;2023-02-01T04:08:16;3.70;53.90
1025;DHT22;501;48.214;11.350;2023-02-01T04:10:42;3.70;53.60
1025;DHT22;501;48.214;11.350;2023-02-01T04:13:08;3.70;53.20
1025;DHT22;501;48.214;11.350;2023-02-01T04:15:33;3.70;53.80
1025;DHT22;501;48.214;11.350;2023-02-01T04:18:00;3.70;53.30
1025;DHT22;501;48.214;11.350;2023-02-01T04:20:26;3.70;53.20
1025;DHT22;501;48.214;11.350;2023-02-01T04:22:51;3.70;53.30
1025;DHT22;501;48.214;11.350;2023-02-01T04:25:17;3.70;53.30
1025;DHT22;501;48.214;11.350;2023-02-01T04:27:43;3.70;53.20
1025;DHT22;501;48.214;11.350;2023-02-01T04:30:09;3.70;52.90
1025;DHT22;501;48.214;11.350;2023-02-01T04:32:36;3.70;53.20
1025;DHT22;501;48.214;11.350;2023-02-01T04:35:02;3.70;53.20
1025;DHT22;501;48.214;11.350;2023-02-01T04:37:28;3.70;53.20
1025;DHT22;501;48.214;11.350;2023-02-01T04:39:54;3.70;53.20
1025;DHT22;501;48.214;11.350;2023-02-01T04:42:20;3.70;53.20
1025;DHT22;501;48.214;11.350;2023-02-01T04:44:45;3.70;53.20
1025;DHT22;501;48.214;11.350;2023-02-01T04:47:11;3.80;51.90
1025;DHT22;501;48.214;11.350;2023-02-01T04:49:37;3.80;51.70
1025;DHT22;501;48.214;11.350;2023-02-01T04:52:03;3.80;51.50
1025;DHT22;501;48.214;11.350;2023-02-01T04:54:28;3.80;51.10
1025;DHT22;501;48.214;11.350;2023-02-01T04:56:54;3.80;51.00
1025;DHT22;501;48.214;11.350;2023-02-01T04:59:19;3.80;50.80
1025;DHT22;501;48.214;11.350;2023-02-01T05:01:45;3.80;51.00
1025;DHT22;501;48.214;11.350;2023-02-01T05:04:11;3.90;51.00
1025;DHT22;501;48.214;11.350;2023-02-01T05:06:36;3.80;50.90
1025;DHT22;501;48.214;11.350;2023-02-01T05:09:02;3.90;50.50
1025;DHT22;501;48.214;11.350;2023-02-01T05:11:27;3.90;50.70
1025;DHT22;501;48.214;11.350;2023-02-01T05:14:11;3.90;50.70
1025;DHT22;501;48.214;11.350;2023-02-01T05:16:37;3.90;50.60
1025;DHT22;501;48.214;11.350;2023-02-01T05:19:03;3.90;50.40
1025;DHT22;501;48.214;11.350;2023-02-01T05:21:28;3.90;50.30
1025;DHT22;501;48.214;11.350;2023-02-01T05:23:54;3.90;50.00
1025;DHT22;501;48.214;11.350;2023-02-01T05:26:34;3.90;49.90
1025;DHT22;501;48.214;11.350;2023-02-01T05:29:00;3.90;50.10
1025;DHT22;501;48.214;11.350;2023-02-01T05:31:26;3.90;49.80
1025;DHT22;501;48.214;11.350;2023-02-01T05:33:52;3.90;49.90
1025;DHT22;501;48.214;11.350;2023-02-01T05:36:18;3.90;49.90
1025;DHT22;501;48.214;11.350;2023-02-01T05:38:43;3.90;49.50
1025;DHT22;501;48.214;11.350;2023-02-01T05:41:09;3.90;49.30
1025;DHT22;501;48.214;11.350;2023-02-01T05:43:35;3.90;49.70
1025;DHT22;501;48.214;11.350;2023-02-01T05:46:01;3.90;49.50
1025;DHT22;501;48.214;11.350;2023-02-01T05:48:26;3.90;49.90
1025;DHT22;501;48.214;11.350;2023-02-01T05:50:52;3.90;49.70
1025;DHT22;501;48.214;11.350;2023-02-01T05:53:18;3.90;49.30
1025;DHT22;501;48.214;11.350;2023-02-01T05:55:44;3.90;49.50
1025;DHT22;501;48.214;11.350;2023-02-01T05:58:09;3.90;49.80
1025;DHT22;501;48.214;11.350;2023-02-01T06:00:35;3.90;50.20
1025;DHT22;501;48.214;11.350;2023-02-01T06:03:01;3.90;49.60
1025;DHT22;501;48.214;11.350;2023-02-01T06:05:27;3.90;50.00
1025;DHT22;501;48.214;11.350;2023-02-01T06:07:52;3.90;49.90
1025;DHT22;501;48.214;11.350;2023-02-01T06:10:18;3.90;49.70
1025;DHT22;501;48.214;11.350;2023-02-01T06:12:44;3.90;49.40
1025;DHT22;501;48.214;11.350;2023-02-01T06:15:13;3.90;49.70
1025;DHT22;501;48.214;11.350;2023-02-01T06:17:41;3.90;50.20
1025;DHT22;501;48.214;11.350;2023-02-01T06:20:09;3.90;50.10
1025;DHT22;501;48.214;11.350;2023-02-01T06:22:35;3.90;50.20
1025;DHT22;501;48.214;11.350;2023-02-01T06:25:04;3.90;50.00
1025;DHT22;501;48.214;11.350;2023-02-01T06:27:31;3.90;50.00
1025;DHT22;501;48.214;11.350;2023-02-01T06:29:57;3.90;49.70
1025;DHT22;501;48.214;11.350;2023-02-01T06:32:22;4.00;49.20
1025;DHT22;501;48.214;11.350;2023-02-01T06:34:49;3.90;49.30
1025;DHT22;501;48.214;11.350;2023-02-01T06:37:15;4.00;49.40
1025;DHT22;501;48.214;11.350;2023-02-01T06:39:40;4.00;49.20
1025;DHT22;501;48.214;11.350;2023-02-01T06:42:06;4.00;49.00
1025;DHT22;501;48.214;11.350;2023-02-01T06:44:31;4.00;49.00
1025;DHT22;501;48.214;11.350;2023-02-01T06:46:57;4.00;48.90
1025;DHT22;501;48.214;11.350;2023-02-01T06:49:23;4.00;48.60
1025;DHT22;501;48.214;11.350;2023-02-01T06:51:48;4.00;48.20
1025;DHT22;501;48.214;11.350;2023-02-01T06:54:14;4.10;48.50
1025;DHT22;501;48.214;11.350;2023-02-01T06:56:40;4.10;48.60
1025;DHT22;501;48.214;11.350;2023-02-01T06:59:07;4.10;48.30
1025;DHT22;501;48.214;11.350;2023-02-01T07:01:33;4.10;49.20
1025;DHT22;501;48.214;11.350;2023-02-01T07:03:59;4.00;48.50
1025;DHT22;501;48.214;11.350;2023-02-01T07:06:25;4.10;48.50
1025;DHT22;501;48.214;11.350;2023-02-01T07:08:51;4.10;48.50
1025;DHT22;501;48.214;11.350;2023-02-01T07:11:19;4.10;48.40
1025;DHT22;501;48.214;11.350;2023-02-01T07:13:45;4.10;47.70
1025;DHT22;501;48.214;11.350;2023-02-01T07:16:13;4.20;47.10
1025;DHT22;501;48.214;11.350;2023-02-01T07:18:39;4.20;46.50
1025;DHT22;501;48.214;11.350;2023-02-01T07:21:05;4.20;45.90
1025;DHT22;501;48.214;11.350;2023-02-01T07:23:31;4.30;46.20
1025;DHT22;501;48.214;11.350;2023-02-01T07:25:59;4.30;45.50
1025;DHT22;501;48.214;11.350;2023-02-01T07:28:25;4.30;45.00
1025;DHT22;501;48.214;11.350;2023-02-01T07:30:51;4.40;45.20
1025;DHT22;501;48.214;11.350;2023-02-01T07:33:21;4.40;45.00
1025;DHT22;501;48.214;11.350;2023-02-01T07:35:48;4.40;45.20
1025;DHT22;501;48.214;11.350;2023-02-01T07:38:14;4.40;44.90
1025;DHT22;501;48.214;11.350;2023-02-01T07:40:40;4.40;44.80
1025;DHT22;501;48.214;11.350;2023-02-01T07:43:06;4.40;45.00
1025;DHT22;501;48.214;11.350;2023-02-01T07:45:33;4.50;45.00
1025;DHT22;501;48.214;11.350;2023-02-01T07:47:59;4.50;44.40
1025;DHT22;501;48.214;11.350;2023-02-01T07:50:24;4.50;44.40
1025;DHT22;501;48.214;11.350;2023-02-01T07:52:50;4.50;44.10
1025;DHT22;501;48.214;11.350;2023-02-01T07:55:16;4.50;44.50
1025;DHT22;501;48.214;11.350;2023-02-01T07:57:41;4.50;44.60
1025;DHT22;501;48.214;11.350;2023-02-01T08:00:08;4.50;44.60
1025;DHT22;501;48.214;11.350;2023-02-01T08:02:52;4.50;44.70
1025;DHT22;501;48.214;11.350;2023-02-01T08:05:18;4.50;44.50
1025;DHT22;501;48.214;11.350;2023-02-01T08:07:43;4.50;44.40
1025;DHT22;501;48.214;11.350;2023-02-01T08:10:09;4.50;44.50
1025;DHT22;501;48.214;11.350;2023-02-01T08:12:37;4.50;44.50
1025;DHT22;501;48.214;11.350;2023-02-01T08:15:03;4.50;44.30
1025;DHT22;501;48.214;11.350;2023-02-01T08:17:29;4.50;44.20
1025;DHT22;501;48.214;11.350;2023-02-01T08:19:55;4.60;43.80
1025;DHT22;501;48.214;11.350;2023-02-01T08:22:22;4.60;43.60
1025;DHT22;501;48.214;11.350;2023-02-01T08:24:48;4.60;43.40
1025;DHT22;501;48.214;11.350;2023-02-01T08:27:14;4.60;43.20
1025;DHT22;501;48.214;11.350;2023-02-01T08:29:39;4.60;43.30
1025;DHT22;501;48.214;11.350;2023-02-01T08:32:05;4.70;43.00
1025;DHT22;501;48.214;11.350;2023-02-01T08:34:31;4.70;43.00
1025;DHT22;501;48.214;11.350;2023-02-01T08:36:56;4.70;42.30
1025;DHT22;501;48.214;11.350;2023-02-01T08:39:26;4.80;42.20
1025;DHT22;501;48.214;11.350;2023-02-01T08:41:52;4.80;41.90
1025;DHT22;501;48.214;11.350;2023-02-01T08:44:36;4.80;41.90
1025;DHT22;501;48.214;11.350;2023-02-01T08:47:03;4.80;42.50
1025;DHT22;501;48.214;11.350;2023-02-01T08:49:29;4.80;42.00
1025;DHT22;501;48.214;11.350;2023-02-01T08:51:54;4.80;41.70
1025;DHT22;501;48.214;11.350;2023-02-01T08:54:21;4.90;41.30
1025;DHT22;501;48.214;11.350;2023-02-01T08:56:47;4.90;41.30
1025;DHT22;501;48.214;11.350;2023-02-01T08:59:12;4.90;41.10
1025;DHT22;501;48.214;11.350;2023-02-01T09:01:38;4.90;41.00
1025;DHT22;501;48.214;11.350;2023-02-01T09:04:04;4.90;41.20
1025;DHT22;501;48.214;11.350;2023-02-01T09:06:29;4.90;41.20
1025;DHT22;501;48.214;11.350;2023-02-01T09:08:56;4.90;41.30
1025;DHT22;501;48.214;11.350;2023-02-01T09:11:21;5.00;41.30
1025;DHT22;501;48.214;11.350;2023-02-01T09:13:48;5.00;40.80
1025;DHT22;501;48.214;11.350;2023-02-01T09:16:14;5.00;41.00
1025;DHT22;501;48.214;11.350;2023-02-01T09:18:40;5.00;40.80
1025;DHT22;501;48.214;11.350;2023-02-01T09:21:06;5.00;40.60
1025;DHT22;501;48.214;11.350;2023-02-01T09:23:33;5.10;40.50
1025;DHT22;501;48.214;11.350;2023-02-01T09:26:00;5.10;41.20
1025;DHT22;501;48.214;11.350;2023-02-01T09:28:26;5.10;41.00
1025;DHT22;501;48.214;11.350;2023-02-01T09:30:56;5.10;40.70
1025;DHT22;501;48.214;11.350;2023-02-01T09:33:22;5.20;40.60
1025;DHT22;501;48.214;11.350;2023-02-01T09:35:49;5.20;40.40
1025;DHT22;501;48.214;11.350;2023-02-01T09:38:15;5.30;40.80
1025;DHT22;501;48.214;11.350;2023-02-01T09:40:43;5.30;40.50
1025;DHT22;501;48.214;11.350;2023-02-01T09:48:57;5.30;40.80
1025;DHT22;501;48.214;11.350;2023-02-01T09:51:47;5.30;40.40
1025;DHT22;501;48.214;11.350;2023-02-01T09:54:17;5.40;41.20
1025;DHT22;501;48.214;11.350;2023-02-01T09:56:47;5.40;40.60
1025;DHT22;501;48.214;11.350;2023-02-01T10:01:40;5.40;41.00
1025;DHT22;501;48.214;11.350;2023-02-01T10:04:10;5.40;41.00
1025;DHT22;501;48.214;11.350;2023-02-01T10:07:09;5.40;40.90
1025;DHT22;501;48.214;11.350;2023-02-01T10:09:42;5.40;41.30
1025;DHT22;501;48.214;11.350;2023-02-01T10:15:06;5.40;40.20
1025;DHT22;501;48.214;11.350;2023-02-01T10:21:19;5.40;40.60
1025;DHT22;501;48.214;11.350;2023-02-01T10:24:15;5.40;40.80
1025;DHT22;501;48.214;11.350;2023-02-01T10:26:46;5.40;41.10
1025;DHT22;501;48.214;11.350;2023-02-01T10:29:20;5.40;41.20
1025;DHT22;501;48.214;11.350;2023-02-01T10:31:48;5.40;41.60
1025;DHT22;501;48.214;11.350;2023-02-01T10:37:28;5.40;41.40
1025;DHT22;501;48.214;11.350;2023-02-01T10:39:56;5.50;41.60
1025;DHT22;501;48.214;11.350;2023-02-01T10:42:28;5.50;41.10
1025;DHT22;501;48.214;11.350;2023-02-01T10:44:56;5.40;40.80
1025;DHT22;501;48.214;11.350;2023-02-01T10:47:24;5.50;41.40
1025;DHT22;501;48.214;11.350;2023-02-01T10:52:42;5.50;41.10
1025;DHT22;501;48.214;11.350;2023-02-01T10:55:40;5.50;40.50
1025;DHT22;501;48.214;11.350;2023-02-01T10:58:20;5.50;40.70
1025;DHT22;501;48.214;11.350;2023-02-01T11:05:58;5.50;41.40
1025;DHT22;501;48.214;11.350;2023-02-01T11:08:24;5.50;41.10
1025;DHT22;501;48.214;11.350;2023-02-01T11:10:59;5.50;41.40
1025;DHT22;501;48.214;11.350;2023-02-01T11:13:30;5.50;41.70
1025;DHT22;501;48.214;11.350;2023-02-01T11:15:57;5.50;41.40
1025;DHT22;501;48.214;11.350;2023-02-01T11:18:36;5.50;41.20
1025;DHT22;501;48.214;11.350;2023-02-01T11:21:07;5.40;41.20
1025;DHT22;501;48.214;11.350;2023-02-01T11:23:36;5.40;40.90
1025;DHT22;501;48.214;11.350;2023-02-01T11:26:24;5.40;41.50
1025;DHT22;501;48.214;11.350;2023-02-01T11:28:55;5.30;41.60
1025;DHT22;501;48.214;11.350;2023-02-01T11:31:22;5.30;41.30
1025;DHT22;501;48.214;11.350;2023-02-01T11:33:52;5.20;40.90
1025;DHT22;501;48.214;11.350;2023-02-01T11:36:23;5.30;41.60
1025;DHT22;501;48.214;11.350;2023-02-01T11:39:08;5.20;41.60
1025;DHT22;501;48.214;11.350;2023-02-01T11:41:40;5.20;41.80
1025;DHT22;501;48.214;11.350;2023-02-01T11:44:21;5.20;41.50
1025;DHT22;501;48.214;11.350;2023-02-01T11:46:47;5.20;41.70
1025;DHT22;501;48.214;11.350;2023-02-01T11:49:24;5.10;41.90
1025;DHT22;501;48.214;11.350;2023-02-01T11:52:06;5.10;42.10
1025;DHT22;501;48.214;11.350;2023-02-01T11:55:23;5.10;42.50
1025;DHT22;501;48.214;11.350;2023-02-01T11:58:14;5.10;42.70
1025;DHT22;501;48.214;11.350;2023-02-01T12:03:39;5.10;42.30
1025;DHT22;501;48.214;11.350;2023-02-01T12:31:36;5.10;41.90
1025;DHT22;501;48.214;11.350;2023-02-01T12:41:49;5.00;41.80
1025;DHT22;501;48.214;11.350;2023-02-01T12:47:04;5.10;41.50
1025;DHT22;501;48.214;11.350;2023-02-01T12:49:49;5.10;41.00
1025;DHT22;501;48.214;11.350;2023-02-01T12:52:37;5.10;40.80
1025;DHT22;501;48.214;11.350;2023-02-01T12:55:15;5.10;40.10
1025;DHT22;501;48.214;11.350;2023-02-01T12:57:46;5.10;39.80
1025;DHT22;501;48.214;11.350;2023-02-01T13:02:48;5.20;39.40
1025;DHT22;501;48.214;11.350;2023-02-01T13:10:43;5.30;39.70
1025;DHT22;501;48.214;11.350;2023-02-01T13:15:56;5.30;40.10
1025;DHT22;501;48.214;11.350;2023-02-01T13:18:25;5.40;40.00
1025;DHT22;501;48.214;11.350;2023-02-01T13:21:08;5.40;41.00
1025;DHT22;501;48.214;11.350;2023-02-01T13:23:38;5.40;41.10
1025;DHT22;501;48.214;11.350;2023-02-01T13:26:04;5.40;41.20
1025;DHT22;501;48.214;11.350;2023-02-01T13:28:51;5.30;41.30
1025;DHT22;501;48.214;11.350;2023-02-01T13:31:52;5.30;41.60
1025;DHT22;501;48.214;11.350;2023-02-01T13:42:28;5.20;43.40
1025;DHT22;501;48.214;11.350;2023-02-01T13:45:04;5.10;43.10
1025;DHT22;501;48.214;11.350;2023-02-01T13:47:35;5.10;43.40
1025;DHT22;501;48.214;11.350;2023-02-01T13:50:13;5.10;43.90
1025;DHT22;501;48.214;11.350;2023-02-01T13:52:45;5.10;44.30
1025;DHT22;501;48.214;11.350;2023-02-01T13:57:47;5.10;44.10
1025;DHT22;501;48.214;11.350;2023-02-01T14:00:29;5.10;44.70
1025;DHT22;501;48.214;11.350;2023-02-01T14:03:06;5.10;44.30
1025;DHT22;501;48.214;11.350;2023-02-01T14:13:32;5.00;45.20
1025;DHT22;501;48.214;11.350;2023-02-01T14:21:25;5.00;43.80
1025;DHT22;501;48.214;11.350;2023-02-01T14:26:23;5.00;43.30
1025;DHT22;501;48.214;11.350;2023-02-01T14:34:29;5.10;41.90
1025;DHT22;501;48.214;11.350;2023-02-01T14:37:07;5.00;41.80
1025;DHT22;501;48.214;11.350;2023-02-01T14:42:21;5.10;41.30
1025;DHT22;501;48.214;11.350;2023-02-01T14:44:48;5.10;40.90
1025;DHT22;501;48.214;11.350;2023-02-01T14:52:33;5.30;39.30
1025;DHT22;501;48.214;11.350;2023-02-01T14:55:04;5.40;39.10
1025;DHT22;501;48.214;11.350;2023-02-01T14:57:33;5.40;38.70
1025;DHT22;501;48.214;11.350;2023-02-01T15:00:08;5.40;38.80
1025;DHT22;501;48.214;11.350;2023-02-01T15:02:39;5.40;38.40
1025;DHT22;501;48.214;11.350;2023-02-01T15:05:27;5.40;38.20
1025;DHT22;501;48.214;11.350;2023-02-01T15:07:55;5.40;39.10
1025;DHT22;501;48.214;11.350;2023-02-01T15:10:23;5.40;39.20
1025;DHT22;501;48.214;11.350;2023-02-01T15:12:49;5.40;39.20
1025;DHT22;501;48.214;11.350;2023-02-01T15:15:23;5.40;39.50
1025;DHT22;501;48.214;11.350;2023-02-01T15:17:57;5.30;39.10
1025;DHT22;501;48.214;11.350;2023-02-01T15:20:25;5.30;39.20
1025;DHT22;501;48.214;11.350;2023-02-01T15:22:59;5.30;39.70
1025;DHT22;501;48.214;11.350;2023-02-01T15:25:46;5.30;39.70
1025;DHT22;501;48.214;11.350;2023-02-01T15:28:16;5.30;39.70
1025;DHT22;501;48.214;11.350;2023-02-01T15:31:03;5.20;40.20
1025;DHT22;501;48.214;11.350;2023-02-01T15:33:30;5.20;40.20
1025;DHT22;501;48.214;11.350;2023-02-01T15:38:37;5.20;41.30
1025;DHT22;501;48.214;11.350;2023-02-01T15:41:13;5.10;41.10
1025;DHT22;501;48.214;11.350;2023-02-01T15:46:13;5.10;40.80
1025;DHT22;501;48.214;11.350;2023-02-01T15:51:15;4.90;41.30
1025;DHT22;501;48.214;11.350;2023-02-01T15:53:58;4.90;41.80
1025;DHT22;501;48.214;11.350;2023-02-01T15:56:28;4.80;42.40
1025;DHT22;501;48.214;11.350;2023-02-01T15:58:59;4.80;42.50
1025;DHT22;501;48.214;11.350;2023-02-01T16:01:26;4.70;42.30
1025;DHT22;501;48.214;11.350;2023-02-01T16:04:22;4.60;43.00
1025;DHT22;501;48.214;11.350;2023-02-01T16:06:54;4.60;42.50
1025;DHT22;501;48.214;11.350;2023-02-01T16:09:22;4.60;42.90
1025;DHT22;501;48.214;11.350;2023-02-01T16:11:54;4.60;43.10
1025;DHT22;501;48.214;11.350;2023-02-01T16:14:20;4.50;43.10
1025;DHT22;501;48.214;11.350;2023-02-01T16:16:46;4.50;42.90
1025;DHT22;501;48.214;11.350;2023-02-01T16:19:12;4.50;42.90
1025;DHT22;501;48.214;11.350;2023-02-01T16:21:38;4.40;42.70
1025;DHT22;501;48.214;11.350;2023-02-01T16:24:04;4.40;41.60
1025;DHT22;501;48.214;11.350;2023-02-01T16:26:30;4.40;42.00
1025;DHT22;501;48.214;11.350;2023-02-01T16:28:57;4.40;41.90
1025;DHT22;501;48.214;11.350;2023-02-01T16:31:28;4.40;42.00
1025;DHT22;501;48.214;11.350;2023-02-01T16:33:54;4.40;41.50
1025;DHT22;501;48.214;11.350;2023-02-01T16:36:20;4.40;41.90
1025;DHT22;501;48.214;11.350;2023-02-01T16:38:47;4.40;41.90
1025;DHT22;501;48.214;11.350;2023-02-01T16:41:18;4.40;41.70
1025;DHT22;501;48.214;11.350;2023-02-01T16:43:44;4.40;42.00
1025;DHT22;501;48.214;11.350;2023-02-01T16:46:15;4.40;42.40
1025;DHT22;501;48.214;11.350;2023-02-01T16:48:42;4.40;42.10
1025;DHT22;501;48.214;11.350;2023-02-01T16:51:13;4.50;42.30
1025;DHT22;501;48.214;11.350;2023-02-01T16:53:39;4.50;42.00
1025;DHT22;501;48.214;11.350;2023-02-01T16:56:17;4.50;42.40
1025;DHT22;501;48.214;11.350;2023-02-01T16:58:44;4.50;42.60
1025;DHT22;501;48.214;11.350;2023-02-01T17:01:15;4.50;42.60
1025;DHT22;501;48.214;11.350;2023-02-01T17:03:42;4.50;42.40
1025;DHT22;501;48.214;11.350;2023-02-01T17:06:11;4.50;41.90
1025;DHT22;501;48.214;11.350;2023-02-01T17:08:42;4.50;42.20
1025;DHT22;501;48.214;11.350;2023-02-01T17:11:11;4.50;41.70
1025;DHT22;501;48.214;11.350;2023-02-01T17:13:37;4.50;41.90
1025;DHT22;501;48.214;11.350;2023-02-01T17:18:40;4.50;41.40
1025;DHT22;501;48.214;11.350;2023-02-01T17:21:05;4.50;41.50
1025;DHT22;501;48.214;11.350;2023-02-01T17:23:32;4.50;41.20
1025;DHT22;501;48.214;11.350;2023-02-01T17:25:58;4.60;41.00
1025;DHT22;501;48.214;11.350;2023-02-01T17:28:24;4.60;40.90
1025;DHT22;501;48.214;11.350;2023-02-01T17:30:50;4.60;40.70
1025;DHT22;501;48.214;11.350;2023-02-01T17:33:27;4.70;40.30
1025;DHT22;501;48.214;11.350;2023-02-01T17:35:55;4.70;40.00
1025;DHT22;501;48.214;11.350;2023-02-01T17:38:22;4.70;39.90
1025;DHT22;501;48.214;11.350;2023-02-01T17:40:48;4.70;40.10
1025;DHT22;501;48.214;11.350;2023-02-01T17:43:15;4.70;39.60
1025;DHT22;501;48.214;11.350;2023-02-01T17:45:48;4.70;39.80
1025;DHT22;501;48.214;11.350;2023-02-01T17:48:18;4.70;39.50
1025;DHT22;501;48.214;11.350;2023-02-01T17:50:44;4.70;39.70
1025;DHT22;501;48.214;11.350;2023-02-01T17:53:11;4.70;39.20
1025;DHT22;501;48.214;11.350;2023-02-01T17:55:41;4.70;39.10
1025;DHT22;501;48.214;11.350;2023-02-01T17:58:10;4.70;39.10
1025;DHT22;501;48.214;11.350;2023-02-01T18:00:36;4.80;38.80
1025;DHT22;501;48.214;11.350;2023-02-01T18:03:02;4.80;39.30
1025;DHT22;501;48.214;11.350;2023-02-01T18:05:30;4.70;39.10
1025;DHT22;501;48.214;11.350;2023-02-01T18:07:58;4.70;39.20
1025;DHT22;501;48.214;11.350;2023-02-01T18:10:23;4.70;39.00
1025;DHT22;501;48.214;11.350;2023-02-01T18:12:49;4.70;38.00
1025;DHT22;501;48.214;11.350;2023-02-01T18:15:20;4.70;38.20
1025;DHT22;501;48.214;11.350;2023-02-01T18:17:47;4.80;38.70
1025;DHT22;501;48.214;11.350;2023-02-01T18:20:19;4.80;38.40
1025;DHT22;501;48.214;11.350;2023-02-01T18:22:45;4.80;38.60
1025;DHT22;501;48.214;11.350;2023-02-01T18:25:24;4.80;38.40
1025;DHT22;501;48.214;11.350;2023-02-01T18:27:51;4.80;38.10
1025;DHT22;501;48.214;11.350;2023-02-01T18:30:23;4.80;38.00
1025;DHT22;501;48.214;11.350;2023-02-01T18:32:49;4.80;37.80
1025;DHT22;501;48.214;11.350;2023-02-01T18:35:21;4.80;37.70
1025;DHT22;501;48.214;11.350;2023-02-01T18:37:48;4.80;37.60
1025;DHT22;501;48.214;11.350;2023-02-01T18:40:19;4.80;37.90
1025;DHT22;501;48.214;11.350;2023-02-01T18:42:45;4.80;38.00
1025;DHT22;501;48.214;11.350;2023-02-01T18:45:35;4.80;38.20
1025;DHT22;501;48.214;11.350;2023-02-01T18:48:01;4.80;37.80
1025;DHT22;501;48.214;11.350;2023-02-01T18:50:32;4.80;37.70
1025;DHT22;501;48.214;11.350;2023-02-01T18:52:59;4.80;37.70
1025;DHT22;501;48.214;11.350;2023-02-01T18:55:26;4.80;38.10
1025;DHT22;501;48.214;11.350;2023-02-01T18:57:52;4.70;37.60
1025;DHT22;501;48.214;11.350;2023-02-01T19:00:20;4.80;37.70
1025;DHT22;501;48.214;11.350;2023-02-01T19:02:47;4.70;38.10
1025;DHT22;501;48.214;11.350;2023-02-01T19:05:13;4.70;37.80